Nearby METAR (Airport) Reports

 

KPRN - Greenville, Alabama, USA
Distance from station: WNW 17mi, 28km
Updated: Wed, 23-Aug-2017 7:56pm CDT
Clear
Clear
 Wind from calm
Wind: Calm
Temperature: 79°F , 26°C
Dew Point: 73°F , 23°C
Humidity: 84%
Barometer: 29.90 inHg , 1012.5 hPa
Clouds: Clear
Visibility: 10 miles , 16 km
2017/08/24 00:56 KPRN 240056Z AUTO 00000KT 10SM CLR 26/23 A2990 RMK AO2 TSB07B26E50 SLP119 T02560228 $
KTOI - Troy, Alabama, USA
Distance from station: ENE 21mi, 34km
Updated: Wed, 23-Aug-2017 7:53pm CDT
Clear
Clear
 Wind from calm
Wind: Calm
Temperature: 81°F , 27°C
Heat Index: 87°F , 31°C
Dew Point: 75°F , 24°C
Humidity: 84%
Barometer: 29.89 inHg , 1012.2 hPa
Clouds: Clear
Visibility: 10 miles , 16 km
2017/08/24 00:53 KTOI 240053Z AUTO 00000KT 10SM CLR 27/24 A2989 RMK AO2 SLP117 T02670239
K79J - Andalusia/Opp Ar, Alabama, USA
Distance from station: S 29mi, 47km
Updated: Wed, 23-Aug-2017 7:56pm CDT
Clear
Clear
 Wind from NNW
Wind: NNW 3 mph , 6 km/h
Temperature: 82°F , 28°C
Heat Index: 86°F , 30°C
Dew Point: 72°F , 22°C
Humidity: 70%
Barometer: 29.89 inHg , 1012.2 hPa
Clouds: Clear
Visibility: 10 miles , 16 km
2017/08/24 00:56 K79J 240056Z AUTO 33003KT 10SM CLR 28/22 A2989 RMK AO2 TSB01B35E51 SLP117 T02780217
 
KMGM - Montgomery, Alabama, USA
Distance from station: N 39mi, 63km
Updated: Wed, 23-Aug-2017 7:53pm CDT
Clear
Clear
 Wind from W
Wind: W 3 mph , 6 km/h
Temperature: 82°F , 28°C
Heat Index: 89°F , 32°C
Dew Point: 75°F , 24°C
Humidity: 79%
Barometer: 29.89 inHg , 1012.2 hPa
Clouds: Clear
Visibility: 10 miles , 16 km
2017/08/24 00:53 KMGM 240053Z 28003KT 10SM CLR 28/24 A2989 RMK AO2 SLP118 T02780239
KMXF - Maxwell Afb/Mgm, Alabama, USA
Distance from station: N 44mi, 70km
Updated: Wed, 23-Aug-2017 7:56pm CDT
Clear
Clear
 Wind from NW
Wind: NW 3 mph , 6 km/h
Temperature: 81°F , 27°C
Heat Index: 86°F , 30°C
Dew Point: 73°F , 23°C
Humidity: 79%
Barometer: 29.88 inHg , 1011.9 hPa
Clouds: Clear
Visibility: 10 miles , 16 km
2017/08/24 00:56 KMXF 240056Z AUTO 32003KT 10SM CLR 27/23 A2988 RMK AO2 SLP119 T02710225
KLOR - Lowe Ahp/Ft. Ruc, Alabama, USA
Distance from station: SE 44mi, 71km
Updated: Wed, 23-Aug-2017 7:58pm CDT
Clear
Clear
 Wind from NW
Wind: NW 3 mph , 6 km/h
Temperature: 81°F , 27°C
Heat Index: 88°F , 31°C
Dew Point: 77°F , 25°C
Humidity: 89%
Barometer: 29.88 inHg , 1011.9 hPa
Clouds: Clear
Visibility: 10 miles , 16 km
2017/08/24 00:58 KLOR 240058Z AUTO 31003KT 10SM CLR 27/25 A2988 RMK AO2 SLP099 T02730247 $
 
KGZH - Evergreen, Alabama, USA
Distance from station: WSW 46mi, 75km
Updated: Wed, 23-Aug-2017 7:53pm CDT
Thunderstorm, Haze, Clear
Thunderstorm, Haze, Clear
 Wind from SSW
Wind: SSW 8 mph , 13 km/h
Temperature: 75°F , 24°C
Dew Point: 66°F , 19°C
Humidity: 74%
Barometer: 29.91 inHg , 1012.9 hPa
Summary: Thunderstorm, Haze
Clouds: Clear
Visibility: 4 miles , 6 km
2017/08/24 00:53 KGZH 240053Z AUTO 21007KT 4SM TS HZ CLR 24/19 A2991 RMK AO2 LTG DSNT ALQDS TSB00 SLP125 T02440194 $
K0J4 - Florala Muni, Alabama, USA
Distance from station: S 47mi, 76km
Updated: Wed, 23-Aug-2017 7:58pm CDT

 
Barometer: 29.91 inHg , 1012.9 hPa
2017/08/24 00:58 K0J4 240058Z AUTO A2991 RMK AO2 SLPNO PWINO FZRANO TSNO $
KOZR - Ozark/Cairns Aaf, Alabama, USA
Distance from station: SE 49mi, 78km
Updated: Wed, 23-Aug-2017 7:56pm CDT
Clear
Clear
 Wind from WSW
Wind: WSW 5 mph , 7 km/h
Temperature: 81°F , 27°C
Heat Index: 88°F , 31°C
Dew Point: 77°F , 25°C
Humidity: 89%
Barometer: 29.88 inHg , 1011.9 hPa
Clouds: Clear
Visibility: 10 miles , 16 km
2017/08/24 00:56 KOZR 240056Z AUTO 24004KT 10SM CLR 27/25 A2988 RMK AO2 SLP118 T02650245 $
 
KHEY - Ft Rucker/Hanche, Alabama, USA
Distance from station: ESE 49mi, 79km
Updated: Wed, 23-Aug-2017 7:58pm CDT
Clear
Clear
 Wind from NW
Wind: NW 3 mph , 6 km/h
Temperature: 81°F , 27°C
Heat Index: 87°F , 31°C
Dew Point: 75°F , 24°C
Humidity: 84%
Barometer: 29.87 inHg , 1011.5 hPa
Clouds: Clear
Visibility: 10 miles , 16 km
2017/08/24 00:58 KHEY 240058Z AUTO 32003KT 10SM CLR 27/24 A2987 RMK AO2 SLP114 T02700243 $
KDHN - Dothan, Alabama, USA
Distance from station: ESE 61mi, 97km
Updated: Wed, 23-Aug-2017 7:53pm CDT
Clear
Clear
 Wind from WSW
Wind: WSW 5 mph , 7 km/h
Temperature: 82°F , 28°C
Heat Index: 90°F , 32°C
Dew Point: 77°F , 25°C
Humidity: 84%
Barometer: 29.92 inHg , 1013.2 hPa
Clouds: Clear
Visibility: 10 miles , 16 km
2017/08/24 00:53 KDHN 240053Z 24004KT 10SM CLR 28/25 A2992 RMK AO2 SLP124 T02830250
KCEW - Crestview, Florida, USA
Distance from station: S 66mi, 107km
Updated: Wed, 23-Aug-2017 7:53pm CDT
Clear
Clear
 Wind from WNW
Wind: WNW 3 mph , 6 km/h
Temperature: 79°F , 26°C
Dew Point: 73°F , 23°C
Humidity: 84%
Barometer: 29.90 inHg , 1012.5 hPa
Clouds: Clear
Visibility: 10 miles , 16 km
2017/08/24 00:53 KCEW 240053Z AUTO 30003KT 10SM CLR 26/23 A2990 RMK AO2 RAE2358 SLP121 P0000 T02560228
 
KEUF - Eufaula, Alabama, USA
Distance from station: ENE 73mi, 118km
Updated: Wed, 23-Aug-2017 7:58pm CDT
Clear
Clear
 Wind from calm
Wind: Calm
Temperature: 81°F , 27°C
Heat Index: 86°F , 30°C
Dew Point: 73°F , 23°C
Humidity: 79%
Barometer: 29.87 inHg , 1011.5 hPa
Clouds: Clear
Visibility: 10 miles , 16 km
2017/08/24 00:58 KEUF 240058Z AUTO 00000KT 10SM CLR 27/23 A2987 RMK AO2 SLP111 T02670233
KJKA - Gulf Shores, Alabama, USA
Distance from station: SSW 132mi, 212km
Updated: Wed, 23-Aug-2017 7:55pm CDT
Partly cloudy
Partly cloudy
 Wind from W
Wind: W 6 mph , 9 km/h
Temperature: 77°F , 25°C
Dew Point: 72°F , 22°C
Humidity: 83%
Barometer: 29.90 inHg , 1012.5 hPa
Clouds: Partly cloudy
Visibility: 10 miles , 16 km
Cloud details: Partly cloudy 11000 ft
2017/08/24 00:55 KJKA 240055Z AUTO 27005KT 10SM SCT110 25/22 A2990 RMK AO2 LTG DSNT N AND NW T02530218
KLSF - Ft Benning/Colum, Georgia, USA
Distance from station: SNE 89mi, 143km
Updated: Wed, 23-Aug-2017 7:58pm CDT
Clear
Clear
 Wind from calm
Wind: Calm
Temperature: 77°F , 25°C
Dew Point: 75°F , 24°C
Humidity: 94%
Barometer: 29.87 inHg , 1011.5 hPa
Clouds: Clear
Visibility: 10 miles , 16 km
2017/08/24 00:58 KLSF 240058Z AUTO 00000KT 10SM CLR 25/24 A2987 RMK AO2 SLP118 T02500236
 
KMOB - Mobile/Bates, Alabama, USA
Distance from station: SW 125mi, 202km
Updated: Wed, 23-Aug-2017 7:56pm CDT
Light rain, Mostly cloudy
Light rain, Mostly cloudy
 Wind from SSE
Wind: SSE 7 mph , 11 km/h
Temperature: 77°F , 25°C
Dew Point: 72°F , 22°C
Humidity: 83%
Barometer: 29.91 inHg , 1012.9 hPa
Summary: Light rain
Clouds: Mostly cloudy
Visibility: 10 miles , 16 km
Cloud details: Mostly cloudy 4500 ft
Mostly cloudy 15000 ft
2017/08/24 00:56 KMOB 240056Z 15006KT 10SM -RA BKN045 BKN150 25/22 A2991 RMK AO2 LTG DSNT SE RAB27 SLP126 CB DSNT ALQDS P0000 T02500222
KNMM - Meridian Nas, Mississippi, USA
Distance from station: WNW 151mi, 243km
Updated: Wed, 23-Aug-2017 7:56pm CDT
Few Clouds
Few Clouds
 Wind from calm
Wind: Calm
Temperature: 82°F , 28°C
Heat Index: 87°F , 31°C
Dew Point: 73°F , 23°C
Humidity: 74%
Barometer: 29.92 inHg , 1013.2 hPa
Clouds: Few Clouds
Visibility: 10 miles , 16 km
Cloud details: Few Clouds 4000 ft
Few Clouds 30000 ft
2017/08/24 00:56 KNMM 240056Z 00000KT 10SM FEW040 FEW300 28/23 A2992 RMK FRQ LTGIC DSNT S CB DSNT S T02830228
KQHY - Hurlbert (Ft Walton Bch), Florida, USA
Distance from station: S 94mi, 151km
Updated: Wed, 23-Aug-2017 7:56pm CDT
Partly cloudy
Partly cloudy
 Wind from calm
Wind: Calm
Temperature: 82°F , 28°C
Heat Index: 87°F , 31°C
Dew Point: 73°F , 23°C
Humidity: 74%
Barometer: 29.89 inHg , 1012.2 hPa
Clouds: Partly cloudy
Visibility: 10 miles , 16 km
Cloud details: Partly cloudy 25000 ft
2017/08/24 00:56 KQHY 240056Z AUTO 00000KT 10SM SCT250 28/23 A2989 RMK AO2 LTG DSNT NW SLP128 T02760227
 
KTCL - Tuscaloosa, Alabama, USA
Distance from station: NNW 129mi, 207km
Updated: Wed, 23-Aug-2017 7:53pm CDT
Few Clouds
Few Clouds
 Wind from N
Wind: N 6 mph , 9 km/h
Temperature: 82°F , 28°C
Heat Index: 87°F , 31°C
Dew Point: 73°F , 23°C
Humidity: 74%
Barometer: 29.91 inHg , 1012.9 hPa
Clouds: Few Clouds
Visibility: 10 miles , 16 km
Cloud details: Few Clouds 200 ft
2017/08/24 00:53 KTCL 240053Z 36005KT 10SM FEW002 28/23 A2991 RMK AO2 SLP126 T02780228
KECP - Panama City, Florida, USA
Distance from station: SSE 122mi, 196km
Updated: Wed, 23-Aug-2017 7:53pm CDT
Clear
Clear
 Wind from W
Wind: W 3 mph , 6 km/h
Temperature: 82°F , 28°C
Heat Index: 89°F , 32°C
Dew Point: 75°F , 24°C
Humidity: 79%
Barometer: 29.87 inHg , 1011.5 hPa
Clouds: Clear
Visibility: 10 miles , 16 km
2017/08/24 00:53 KECP 240053Z 27003KT 10SM CLR 28/24 A2987 RMK AO2 SLP126 T02830239
KCBM - Columbus Afb, Mississippi, USA
Distance from station: NW 175mi, 282km
Updated: Wed, 23-Aug-2017 7:56pm CDT
Clear
Clear
 Wind from NNE
Wind: NNE 8 mph , 13 km/h
Temperature: 81°F , 27°C
Heat Index: 85°F , 29°C
Dew Point: 72°F , 22°C
Humidity: 74%
Barometer: 29.92 inHg , 1013.2 hPa
Clouds: Clear
Visibility: 10 miles , 16 km
2017/08/24 00:56 KCBM 240056Z AUTO 02007KT 10SM CLR 27/22 A2992 RMK AO2 SLP133 T02670223
 
KBHM - Birmingham, Alabama, USA
Distance from station: N 132mi, 212km
Updated: Wed, 23-Aug-2017 7:53pm CDT
Clear
Clear
 Wind from N
Wind: N 7 mph , 11 km/h
Temperature: 77°F , 25°C
Dew Point: 70°F , 21°C
Humidity: 79%
Barometer: 29.95 inHg , 1014.2 hPa
Clouds: Clear
Visibility: 10 miles , 16 km
2017/08/24 00:53 KBHM 240053Z 35006KT 10SM CLR 25/21 A2995 RMK AO2 SLP132 T02500206
KAAF - Apalachicola, Florida, USA
Distance from station: SSE 156mi, 250km
Updated: Wed, 23-Aug-2017 7:53pm CDT
Clear
Clear
 Wind from W
Wind: W 5 mph , 7 km/h
Temperature: 84°F , 29°C
Heat Index: 92°F , 33°C
Dew Point: 75°F , 24°C
Humidity: 74%
Barometer: 29.87 inHg , 1011.5 hPa
Clouds: Clear
Visibility: 10 miles , 16 km
2017/08/24 00:53 KAAF 240053Z AUTO 26004KT 10SM CLR 29/24 A2987 RMK AO2 SLP116 T02890244
KATL - Atlanta, Georgia, USA
Distance from station: NE 177mi, 287km
Updated: Wed, 23-Aug-2017 7:52pm CDT
Few Clouds
Few Clouds
 Wind from NW
Wind: NW 7 mph , 11 km/h
Temperature: 82°F , 28°C
Heat Index: 84°F , 29°C
Dew Point: 64°F , 18°C
Humidity: 55%
Barometer: 29.90 inHg , 1012.5 hPa
Clouds: Few Clouds
Visibility: 10 miles , 16 km
Cloud details: Few Clouds 25000 ft
2017/08/24 00:52 KATL 240052Z 32006KT 10SM FEW250 28/18 A2990 RMK AO2 SLP113 T02780183
 
KGPT - Gulfport, Mississippi, USA
Distance from station: SW 192mi, 309km
Updated: Wed, 23-Aug-2017 8:04pm CDT
Clear
Clear
 Wind from calm
Wind: Calm
Temperature: 84°F , 29°C
Heat Index: 92°F , 33°C
Dew Point: 75°F , 24°C
Humidity: 74%
Barometer: 29.89 inHg , 1012.2 hPa
Clouds: Clear
Visibility: 10 miles , 16 km
2017/08/24 01:04 KGPT 240104Z 00000KT 10SM CLR 29/24 A2989 RMK AO2 LTG DSNT W AND NW T02890239
KNEW - New Orleans/Lake, Louisiana, USA
Distance from station: SW 255mi, 410km
Updated: Wed, 23-Aug-2017 7:53pm CDT
Clear
Clear
 Wind from SSE
Wind: SSE 7 mph , 11 km/h
Temperature: 86°F , 30°C
Heat Index: 97°F , 36°C
Dew Point: 77°F , 25°C
Humidity: 75%
Barometer: 29.89 inHg , 1012.2 hPa
Clouds: Clear
Visibility: 10 miles , 16 km
2017/08/24 00:53 KNEW 240053Z 16006KT 10SM CLR 30/25 A2989 RMK AO2 SLP114 T03000250
KP92 - Salt Point, Louisiana, USA
Distance from station: SW 347mi, 559km
Updated: Wed, 23-Aug-2017 7:53pm CDT

 Wind from calm
Wind: Calm
Temperature: 84°F , 29°C
Heat Index: 94°F , 34°C
Dew Point: 77°F , 25°C
Humidity: 79%
Barometer: 29.87 inHg , 1011.5 hPa
2017/08/24 00:53 KP92 240053Z AUTO 00000KT 29/25 A2987 RMK AO1 SLP115 T02890250